createdAt,value
2019-02-20T00:01:05.220Z,28.43
2019-02-20T00:03:31.652Z,26.73
2019-02-20T00:05:58.864Z,22.13
2019-02-20T00:08:25.074Z,23.10
2019-02-20T00:10:51.269Z,23.33
2019-02-20T00:13:17.485Z,22.03
2019-02-20T00:15:43.845Z,18.30
2019-02-20T00:18:09.926Z,19.37
2019-02-20T00:20:36.153Z,27.30
2019-02-20T00:23:02.328Z,25.37
2019-02-20T00:25:28.535Z,20.23
2019-02-20T00:27:54.765Z,22.27
2019-02-20T00:30:21.301Z,21.20
2019-02-20T00:32:49.726Z,23.13
2019-02-20T00:35:16.460Z,21.50
2019-02-20T00:37:42.818Z,22.77
2019-02-20T00:40:10.445Z,22.20
2019-02-20T00:42:36.649Z,23.60
2019-02-20T00:45:16.928Z,24.37
2019-02-20T00:48:00.347Z,21.60
2019-02-20T00:50:28.477Z,19.90
2019-02-20T00:53:08.940Z,22.30
2019-02-20T00:55:35.147Z,24.47
2019-02-20T00:58:01.212Z,21.37
2019-02-20T01:00:27.319Z,24.67
2019-02-20T01:02:53.411Z,21.27
2019-02-20T01:05:19.772Z,28.90
2019-02-20T01:07:45.855Z,19.63
2019-02-20T01:10:12.064Z,20.80
2019-02-20T01:12:38.158Z,21.67
2019-02-20T01:15:07.615Z,29.07
2019-02-20T01:17:33.976Z,20.33
2019-02-20T01:20:00.421Z,28.13
2019-02-20T01:22:26.832Z,25.97
2019-02-20T01:24:52.931Z,27.40
2019-02-20T01:27:19.101Z,24.53
2019-02-20T01:29:45.197Z,26.57
2019-02-20T01:32:11.305Z,22.80
2019-02-20T01:34:37.474Z,24.30
2019-02-20T01:37:03.775Z,24.87
2019-02-20T01:39:30.074Z,23.30
2019-02-20T01:41:56.391Z,27.50
2019-02-20T01:44:22.495Z,25.03
2019-02-20T01:46:48.579Z,26.67
2019-02-20T01:49:14.665Z,28.57
2019-02-20T01:51:41.292Z,26.93
2019-02-20T01:54:10.717Z,26.77
2019-02-20T01:56:37.055Z,29.93
2019-02-20T01:59:03.256Z,28.90
2019-02-20T02:01:29.467Z,28.00
2019-02-20T02:03:55.776Z,30.17
2019-02-20T02:06:22.044Z,29.30
2019-02-20T02:08:48.166Z,31.27
2019-02-20T02:11:14.510Z,32.57
2019-02-20T02:13:40.597Z,26.53
2019-02-20T02:16:06.894Z,30.60
2019-02-20T02:18:32.973Z,29.83
2019-02-20T02:20:59.208Z,26.70
2019-02-20T02:23:25.336Z,31.80
2019-02-20T02:25:51.588Z,31.27
2019-02-20T02:28:17.693Z,32.20
2019-02-20T02:30:43.903Z,32.90
2019-02-20T02:33:10.018Z,29.17
2019-02-20T02:35:36.115Z,35.73
2019-02-20T02:38:02.420Z,33.97
2019-02-20T02:40:28.509Z,32.90
2019-02-20T02:42:54.594Z,33.47
2019-02-20T02:45:20.817Z,33.23
2019-02-20T02:47:46.962Z,36.83
2019-02-20T02:50:13.143Z,33.70
2019-02-20T02:52:39.362Z,35.33
2019-02-20T02:55:05.703Z,33.53
2019-02-20T02:57:31.810Z,34.97
2019-02-20T02:59:57.983Z,36.37
2019-02-20T03:02:24.129Z,36.67
2019-02-20T03:04:50.220Z,32.87
2019-02-20T03:07:16.325Z,34.13
2019-02-20T03:09:42.573Z,37.23
2019-02-20T03:12:08.660Z,34.20
2019-02-20T03:14:34.843Z,33.90
2019-02-20T03:17:01.059Z,34.53
2019-02-20T03:19:27.281Z,32.63
2019-02-20T03:21:53.391Z,33.63
2019-02-20T03:24:19.613Z,35.97
2019-02-20T03:26:45.979Z,32.23
2019-02-20T03:29:12.168Z,35.60
2019-02-20T03:31:38.230Z,34.30
2019-02-20T03:34:04.385Z,34.47
2019-02-20T03:36:30.583Z,37.30
2019-02-20T03:38:56.775Z,33.73
2019-02-20T03:41:23.086Z,37.37
2019-02-20T03:43:49.257Z,40.37
2019-02-20T03:46:15.464Z,37.63
2019-02-20T03:48:41.641Z,40.60
2019-02-20T03:51:07.949Z,30.97
2019-02-20T03:53:34.152Z,42.83
2019-02-20T03:56:00.335Z,36.37
2019-02-20T03:58:26.475Z,34.17
2019-02-20T04:00:52.654Z,37.77
2019-02-20T04:03:18.876Z,39.00
2019-02-20T04:05:44.985Z,34.40
2019-02-20T04:08:11.097Z,34.47
2019-02-20T04:10:37.317Z,31.07
2019-02-20T04:13:03.535Z,35.20
2019-02-20T04:15:30.082Z,35.87
2019-02-20T04:17:56.284Z,37.97
2019-02-20T04:20:22.494Z,35.87
2019-02-20T04:22:48.592Z,31.83
2019-02-20T04:25:14.812Z,34.27
2019-02-20T04:27:40.907Z,35.07
2019-02-20T04:30:08.125Z,37.93
2019-02-20T04:32:34.206Z,39.07
2019-02-20T04:35:00.445Z,38.43
2019-02-20T04:37:26.527Z,39.67
2019-02-20T04:39:52.708Z,38.20
2019-02-20T04:42:18.890Z,37.23
2019-02-20T04:44:45.068Z,36.37
2019-02-20T04:47:11.146Z,31.10
2019-02-20T04:49:37.261Z,33.90
2019-02-20T04:52:05.717Z,40.20
2019-02-20T04:54:31.825Z,34.10
2019-02-20T04:56:58.034Z,33.60
2019-02-20T04:59:24.220Z,33.33
2019-02-20T05:01:50.444Z,32.93
2019-02-20T05:04:16.558Z,38.47
2019-02-20T05:06:42.778Z,34.03
2019-02-20T05:09:08.852Z,36.27
2019-02-20T05:11:35.178Z,34.23
2019-02-20T05:14:06.085Z,32.87
2019-02-20T05:16:32.209Z,39.13
2019-02-20T05:18:58.351Z,37.47
2019-02-20T05:21:24.535Z,35.03
2019-02-20T05:23:50.628Z,29.27
2019-02-20T05:26:16.690Z,34.97
2019-02-20T05:28:42.924Z,36.13
2019-02-20T05:31:10.648Z,34.63
2019-02-20T05:33:36.922Z,32.63
2019-02-20T05:36:12.464Z,34.43
2019-02-20T05:38:38.638Z,33.83
2019-02-20T05:41:04.713Z,37.30
2019-02-20T05:43:30.850Z,33.53
2019-02-20T05:45:57.100Z,32.90
2019-02-20T05:48:23.195Z,32.07
2019-02-20T05:50:49.319Z,34.00
2019-02-20T05:53:15.533Z,34.97
2019-02-20T05:55:41.708Z,32.37
2019-02-20T05:58:07.912Z,36.03
2019-02-20T06:00:34.107Z,35.20
2019-02-20T06:03:00.358Z,36.30
2019-02-20T06:05:26.442Z,37.27
2019-02-20T06:07:52.563Z,35.80
2019-02-20T06:10:18.870Z,38.63
2019-02-20T06:12:45.133Z,41.00
2019-02-20T06:15:11.409Z,36.87
2019-02-20T06:17:37.488Z,34.90
2019-02-20T06:20:17.011Z,36.53
2019-02-20T06:22:43.192Z,39.30
2019-02-20T06:25:15.254Z,40.70
2019-02-20T06:27:41.394Z,36.93
2019-02-20T06:30:09.932Z,35.40
2019-02-20T06:32:37.072Z,39.27
2019-02-20T06:35:05.769Z,39.90
2019-02-20T06:37:32.018Z,41.57
2019-02-20T06:39:58.156Z,39.13
2019-02-20T06:42:24.407Z,41.63
2019-02-20T06:44:50.669Z,39.20
2019-02-20T06:47:16.862Z,44.20
2019-02-20T06:49:46.205Z,39.07
2019-02-20T06:52:12.428Z,37.13
2019-02-20T06:54:38.615Z,40.80
2019-02-20T06:57:04.702Z,36.73
2019-02-20T06:59:30.931Z,38.77
2019-02-20T07:01:57.115Z,39.50
2019-02-20T07:04:23.435Z,39.17
2019-02-20T07:06:53.390Z,41.80
2019-02-20T07:09:39.975Z,43.60
2019-02-20T07:12:22.013Z,40.60
2019-02-20T07:17:42.114Z,41.27
2019-02-20T07:20:41.344Z,47.83
2019-02-20T07:23:23.230Z,41.00
2019-02-20T07:26:13.519Z,46.73
2019-02-20T07:28:46.410Z,37.63
2019-02-20T07:31:12.749Z,36.80
2019-02-20T07:33:38.866Z,53.60
2019-02-20T07:36:05.812Z,39.43
2019-02-20T07:38:31.913Z,37.27
2019-02-20T07:40:58.034Z,41.87
2019-02-20T07:43:24.127Z,39.00
2019-02-20T07:45:50.196Z,48.73
2019-02-20T07:48:16.343Z,36.93
2019-02-20T07:50:43.418Z,36.67
2019-02-20T07:53:09.453Z,37.50
2019-02-20T07:55:35.542Z,36.27
2019-02-20T07:58:05.613Z,37.43
2019-02-20T08:00:31.936Z,34.43
2019-02-20T08:02:58.050Z,33.73
2019-02-20T08:05:24.246Z,37.03
2019-02-20T08:07:50.345Z,36.27
2019-02-20T08:10:16.465Z,42.17
2019-02-20T08:12:42.683Z,32.33
2019-02-20T08:15:14.678Z,37.13
2019-02-20T08:17:41.103Z,38.97
2019-02-20T08:20:09.305Z,36.37
2019-02-20T08:22:35.614Z,36.27
2019-02-20T08:25:01.917Z,38.33
2019-02-20T08:27:29.087Z,32.60
2019-02-20T08:29:55.158Z,35.57
2019-02-20T08:32:21.285Z,35.57
2019-02-20T08:34:47.341Z,33.63
2019-02-20T08:37:13.433Z,31.83
2019-02-20T08:39:39.524Z,30.53
2019-02-20T08:42:05.849Z,32.70
2019-02-20T08:44:32.050Z,35.53
2019-02-20T08:46:58.344Z,32.60
2019-02-20T08:49:24.577Z,33.70
2019-02-20T08:51:50.680Z,31.70
2019-02-20T08:54:16.882Z,28.73
2019-02-20T08:56:43.112Z,33.57
2019-02-20T08:59:09.185Z,31.27
2019-02-20T09:01:35.431Z,31.63
2019-02-20T09:04:02.332Z,29.20
2019-02-20T09:06:28.938Z,36.13
2019-02-20T09:08:55.139Z,27.53
2019-02-20T09:11:21.255Z,30.93
2019-02-20T09:13:47.362Z,29.43
2019-02-20T09:16:15.958Z,28.53
2019-02-20T09:18:42.162Z,29.27
2019-02-20T09:21:10.171Z,27.27
2019-02-20T09:23:37.138Z,28.03
2019-02-20T09:26:03.552Z,26.30
2019-02-20T09:28:29.777Z,29.10
2019-02-20T09:30:55.989Z,31.40
2019-02-20T09:33:22.120Z,25.77
2019-02-20T09:35:48.238Z,27.17
2019-02-20T09:38:14.348Z,27.13
2019-02-20T09:40:40.469Z,24.50
2019-02-20T09:43:06.704Z,28.67
2019-02-20T09:45:41.702Z,31.87
2019-02-20T09:48:05.384Z,26.80
2019-02-20T09:50:31.589Z,27.20
2019-02-20T09:52:57.865Z,23.40
2019-02-20T09:55:24.068Z,26.63
2019-02-20T09:57:50.167Z,29.80
2019-02-20T10:00:17.655Z,23.43
2019-02-20T10:02:44.018Z,27.63
2019-02-20T10:05:15.090Z,22.73
2019-02-20T10:07:41.207Z,24.20
2019-02-20T10:10:09.033Z,24.87
2019-02-20T10:12:35.231Z,22.10
2019-02-20T12:10:16.233Z,25.90
2019-02-20T12:12:43.643Z,28.67
2019-02-20T12:15:10.165Z,30.87
2019-02-20T12:17:37.565Z,29.87
2019-02-20T12:20:06.370Z,28.27
2019-02-20T12:22:32.551Z,26.80
2019-02-20T12:24:59.366Z,25.90
2019-02-20T12:27:25.776Z,26.50
2019-02-20T12:29:51.879Z,27.60
2019-02-20T12:32:18.310Z,30.60
2019-02-20T12:34:46.542Z,35.03
2019-02-20T12:37:13.011Z,28.10
2019-02-20T12:39:39.098Z,32.53
2019-02-20T12:42:05.622Z,30.77
2019-02-20T12:44:31.952Z,31.00
2019-02-20T12:46:59.353Z,32.70
2019-02-20T12:49:25.575Z,29.60
2019-02-20T12:51:51.900Z,30.97
2019-02-20T12:54:18.195Z,33.30
2019-02-20T12:56:44.425Z,30.80
2019-02-20T12:59:10.703Z,30.43
2019-02-20T13:01:38.245Z,33.03
2019-02-20T13:04:04.577Z,27.80
2019-02-20T13:06:31.894Z,31.37
2019-02-20T13:08:58.234Z,37.53
2019-02-20T13:11:24.554Z,39.17
2019-02-20T13:13:50.776Z,30.97
2019-02-20T13:16:17.071Z,27.80
2019-02-20T13:18:43.191Z,34.70
2019-02-20T13:21:10.987Z,31.40
2019-02-20T13:23:37.540Z,29.90
2019-02-20T13:26:06.129Z,31.73
2019-02-20T13:28:32.190Z,30.23
2019-02-20T13:30:58.451Z,31.77
2019-02-20T13:33:25.042Z,32.80
2019-02-20T13:35:51.273Z,34.10
2019-02-20T13:38:17.560Z,33.13
2019-02-20T13:40:44.436Z,34.60
2019-02-20T13:43:12.867Z,31.63
2019-02-20T13:45:39.311Z,36.17
2019-02-20T13:48:05.842Z,32.90
2019-02-20T13:50:32.314Z,36.40
2019-02-20T13:52:58.494Z,31.50
2019-02-20T13:55:34.074Z,34.70
2019-02-20T13:57:53.171Z,33.30
2019-02-20T14:00:19.360Z,37.67
2019-02-20T14:02:45.712Z,35.97
2019-02-20T14:05:11.914Z,36.93
2019-02-20T14:07:39.560Z,34.77
2019-02-20T14:10:10.641Z,36.40
2019-02-20T14:12:38.376Z,33.17
2019-02-20T14:15:08.296Z,32.73
2019-02-20T14:17:34.635Z,36.67
2019-02-20T14:20:00.739Z,36.60
2019-02-20T14:22:27.477Z,36.00
2019-02-20T14:24:54.187Z,31.33
2019-02-20T14:27:20.600Z,34.57
2019-02-20T14:29:46.982Z,33.67
2019-02-20T14:32:13.225Z,33.13
2019-02-20T14:34:39.345Z,34.77
2019-02-20T14:37:05.463Z,35.20
2019-02-20T14:39:31.697Z,35.90
2019-02-20T14:41:57.914Z,36.13
2019-02-20T14:44:24.172Z,36.90
2019-02-20T14:46:50.795Z,36.87
2019-02-20T14:49:17.038Z,32.43
2019-02-20T14:51:43.227Z,33.57
2019-02-20T14:54:09.347Z,34.13
2019-02-20T14:56:35.519Z,36.13
2019-02-20T14:59:01.808Z,35.17
2019-02-20T15:01:28.266Z,35.70
2019-02-20T15:03:54.380Z,34.53
2019-02-20T15:06:20.579Z,35.13
2019-02-20T15:08:47.095Z,35.00
2019-02-20T15:11:13.419Z,36.47
2019-02-20T15:13:57.921Z,35.80
2019-02-20T15:16:42.520Z,38.90
2019-02-20T15:19:29.776Z,34.17
2019-02-20T15:21:56.117Z,38.70
2019-02-20T15:24:22.393Z,38.20
2019-02-20T15:26:48.643Z,33.10
2019-02-20T15:29:14.814Z,40.63
2019-02-20T15:31:41.917Z,44.50
2019-02-20T15:34:08.497Z,42.10
2019-02-20T15:36:34.924Z,40.97
2019-02-20T15:39:01.338Z,43.03
2019-02-20T15:41:28.620Z,42.33
2019-02-20T15:43:54.852Z,44.97
2019-02-20T15:46:21.081Z,45.13
2019-02-20T15:48:47.420Z,46.27
2019-02-20T15:51:14.040Z,46.53
2019-02-20T15:53:41.468Z,45.77
2019-02-20T15:56:13.773Z,45.67
2019-02-20T15:58:47.413Z,47.67
2019-02-20T16:01:14.051Z,48.10
2019-02-20T16:03:40.410Z,47.57
2019-02-20T16:06:06.857Z,50.00
2019-02-20T16:08:33.165Z,49.67
2019-02-20T16:11:06.065Z,53.07
2019-02-20T16:13:32.523Z,58.93
2019-02-20T16:15:59.018Z,52.43
2019-02-20T16:18:25.558Z,55.03
2019-02-20T16:20:52.120Z,53.50
2019-02-20T16:23:19.673Z,54.90
2019-02-20T16:25:46.132Z,48.67
2019-02-20T16:28:12.398Z,51.93
2019-02-20T16:30:38.986Z,54.43
2019-02-20T16:33:07.707Z,49.90
2019-02-20T16:35:34.298Z,53.93
2019-02-20T16:40:40.490Z,50.60
2019-02-20T16:43:06.961Z,53.07
2019-02-20T16:45:33.767Z,54.13
2019-02-20T16:48:00.167Z,51.00
2019-02-20T16:50:26.263Z,51.53
2019-02-20T16:52:52.865Z,55.10
2019-02-20T16:55:19.682Z,56.27
2019-02-20T16:57:46.670Z,52.13
2019-02-20T17:00:14.315Z,51.00
2019-02-20T17:02:41.297Z,52.73
2019-02-20T17:05:14.202Z,49.17
2019-02-20T17:07:40.304Z,48.83
2019-02-20T17:10:10.920Z,50.83
2019-02-20T17:12:37.265Z,51.97
2019-02-20T17:15:14.606Z,49.73
2019-02-20T17:17:40.968Z,50.13
2019-02-20T17:20:10.609Z,52.40
2019-02-20T17:22:37.018Z,54.77
2019-02-20T17:25:04.840Z,49.33
2019-02-20T17:27:31.049Z,48.10
2019-02-20T17:29:57.560Z,50.37
2019-02-20T17:32:24.034Z,48.63
2019-02-20T17:34:50.259Z,51.90
2019-02-20T17:37:16.696Z,49.27
2019-02-20T17:39:43.109Z,47.57
2019-02-20T17:42:09.838Z,52.57
2019-02-20T17:44:36.246Z,54.67
2019-02-20T17:47:02.550Z,56.47
2019-02-20T17:49:28.708Z,54.20
2019-02-20T17:51:54.969Z,50.37
2019-02-20T17:54:21.248Z,55.30
2019-02-20T17:56:47.356Z,59.40
2019-02-20T17:59:13.952Z,57.77
2019-02-20T18:01:40.400Z,52.33
2019-02-20T18:04:06.517Z,58.10
2019-02-20T18:06:32.727Z,57.87
2019-02-20T18:08:59.188Z,56.47
2019-02-20T18:11:25.634Z,56.77
2019-02-20T18:13:52.010Z,54.00
2019-02-20T18:16:18.373Z,55.07
2019-02-20T18:18:45.802Z,49.70
2019-02-20T18:21:12.230Z,62.03
2019-02-20T18:23:38.611Z,56.70
2019-02-20T18:26:04.834Z,47.97
2019-02-20T18:28:31.153Z,55.20
2019-02-20T18:30:57.731Z,56.93
2019-02-20T18:33:24.204Z,55.20
2019-02-20T18:35:50.820Z,53.10
2019-02-20T18:38:17.206Z,59.20
2019-02-20T18:40:43.636Z,56.20
2019-02-20T18:43:09.968Z,58.37
2019-02-20T18:45:36.286Z,51.47
2019-02-20T18:48:02.869Z,56.67
2019-02-20T18:50:29.305Z,46.43
2019-02-20T18:52:55.774Z,51.50
2019-02-20T18:55:22.004Z,52.27
2019-02-20T18:57:48.312Z,48.33
2019-02-20T19:00:19.063Z,52.63
2019-02-20T19:02:45.714Z,53.17
2019-02-20T19:05:12.228Z,52.67
2019-02-20T19:07:38.701Z,50.47
2019-02-20T19:10:14.692Z,57.53
2019-02-20T19:12:44.810Z,53.00
2019-02-20T19:15:29.611Z,52.83
2019-02-20T19:18:02.689Z,51.20
2019-02-20T19:20:38.658Z,46.10
2019-02-20T19:23:25.264Z,47.97
2019-02-20T19:26:01.339Z,46.03
2019-02-20T19:28:54.330Z,45.07
2019-02-20T19:31:40.949Z,48.80
2019-02-20T19:34:23.679Z,44.33
2019-02-20T19:37:00.007Z,47.27
2019-02-20T19:39:39.072Z,48.90
2019-02-20T19:42:11.956Z,53.00
2019-02-20T19:44:54.291Z,48.07
2019-02-20T19:47:40.953Z,45.67
2019-02-20T19:50:38.323Z,44.70
2019-02-20T19:53:17.453Z,58.27
2019-02-20T19:56:11.938Z,65.20
2019-02-20T19:59:04.669Z,66.33
2019-02-20T20:02:09.992Z,66.20
2019-02-20T20:04:52.316Z,54.87
2019-02-20T20:07:57.588Z,56.87
2019-02-20T20:10:30.862Z,49.77
2019-02-20T20:13:00.943Z,64.40
2019-02-20T20:15:42.722Z,62.57
2019-02-20T20:18:39.245Z,63.27
2019-02-20T20:21:27.901Z,57.53
2019-02-20T20:24:22.779Z,45.50
2019-02-20T20:27:09.763Z,48.00
2019-02-20T20:29:45.698Z,50.40
2019-02-20T20:32:31.909Z,47.20
2019-02-20T20:35:23.616Z,44.20
2019-02-20T20:38:05.653Z,44.87
2019-02-20T20:40:50.550Z,46.63
2019-02-20T20:43:32.603Z,47.10
2019-02-20T20:46:08.766Z,49.33
2019-02-20T20:48:50.726Z,49.73
2019-02-20T20:51:40.795Z,49.30
2019-02-20T20:54:23.284Z,48.97
2019-02-20T20:56:57.719Z,48.07
2019-02-20T20:59:28.063Z,50.00
2019-02-20T21:02:01.093Z,51.30
2019-02-20T21:04:38.941Z,49.83
2019-02-20T21:07:12.217Z,51.17
2019-02-20T21:09:53.905Z,47.37
2019-02-20T21:12:30.239Z,50.37
2019-02-20T21:15:12.369Z,44.23
2019-02-20T21:17:54.069Z,45.37
2019-02-20T21:20:42.562Z,45.40
2019-02-20T21:23:21.532Z,41.87
2019-02-20T21:26:03.587Z,37.77
2019-02-20T21:28:45.764Z,42.10
2019-02-20T21:31:27.603Z,39.43
2019-02-20T21:34:03.930Z,41.13
2019-02-20T21:36:51.132Z,40.80
2019-02-20T21:39:27.531Z,42.63
2019-02-20T21:42:12.802Z,39.50
2019-02-20T21:45:04.022Z,41.07
2019-02-20T21:47:37.150Z,41.53
2019-02-20T21:50:16.103Z,39.80
2019-02-20T21:53:03.183Z,40.43
2019-02-20T21:55:36.041Z,43.03
2019-02-20T21:58:12.450Z,39.10
2019-02-20T22:00:42.399Z,40.97
2019-02-20T22:03:18.540Z,42.63
2019-02-20T22:05:58.464Z,41.53
2019-02-20T22:08:56.334Z,42.43
2019-02-20T22:11:26.573Z,40.50
2019-02-20T22:14:11.932Z,37.37
2019-02-20T22:17:08.919Z,36.37
2019-02-20T22:19:47.847Z,38.47
2019-02-20T22:22:25.639Z,32.20
2019-02-20T22:25:15.341Z,38.43
2019-02-20T22:28:14.848Z,35.03
2019-02-20T22:30:57.302Z,33.83
2019-02-20T22:33:27.390Z,35.00
2019-02-20T22:36:14.096Z,34.13
2019-02-20T22:38:53.300Z,36.47
2019-02-20T22:41:26.237Z,33.60
2019-02-20T22:44:22.286Z,37.27
2019-02-20T22:47:13.816Z,35.13
2019-02-20T22:49:45.335Z,36.90
2019-02-20T22:52:21.227Z,35.43
2019-02-20T22:55:00.312Z,37.33
2019-02-20T22:57:55.743Z,33.50
2019-02-20T23:00:52.208Z,36.17
2019-02-20T23:03:36.479Z,35.43
2019-02-20T23:06:23.662Z,40.47
2019-02-20T23:09:15.294Z,38.07
2019-02-20T23:11:55.040Z,38.60
2019-02-20T23:14:31.937Z,37.93
2019-02-20T23:16:58.771Z,34.77
2019-02-20T23:19:24.949Z,38.77
2019-02-20T23:21:51.457Z,36.93
2019-02-20T23:24:17.581Z,42.33
2019-02-20T23:26:43.825Z,39.13
2019-02-20T23:29:10.234Z,39.47
2019-02-20T23:31:36.614Z,36.70
2019-02-20T23:34:05.956Z,38.17
2019-02-20T23:36:32.388Z,43.63
2019-02-20T23:38:58.652Z,39.57
2019-02-20T23:41:24.759Z,41.73
2019-02-20T23:43:51.161Z,40.17
2019-02-20T23:46:17.603Z,40.13
2019-02-20T23:48:43.842Z,40.57
2019-02-20T23:51:10.072Z,37.43
2019-02-20T23:53:36.440Z,37.13
2019-02-20T23:56:04.818Z,38.40
2019-02-20T23:58:31.479Z,40.77
